LKPD

Pardubice Airport

Pardubice, Czech Republic
METAR LKPD 192200Z 11005KT CAVOK 24/11 Q1017 RMK BLU BLU
Observed Flight Rules
Aug-19 @ 22:00 UTC (an hour ago) Visual Flight Rules
Wind Visibility Clouds
110° at 5 knots 10,000+ meters
  • Clear skies
Temperatures Readings
Current 24°C / 75°F
Dewpoint 11°C / 52°F
Humidity 44%
Altimeter 30.03" Hg
Pressure 1017 hPa
Elevation 226
METAR LKPD 192200Z 11005KT CAVOK 24/11 Q1017 RMK BLU BLU
Observed Flight Rules
Aug-19 @ 22:00 UTC
(an hour ago)
VFR
Wind Visibility
110° at 5 knots 10,000+ meters
Clouds
  • Clear skies
Temperature Dewpoint
24°C / 75°F 11°C / 52°F
Humidity Altimeter Pressure
44% 30.03" Hg 1017 hPa